Breckenridge, CO

11:10 PM MDT on October 22, 2014 (GMT -0600)
Copper Mountain | Change Station
CLOSE
Current Station
Airport
Location: Copper Mountain,
Elevation: 12073 ft
Nearby Weather Stations

Elev 12073 ft 39.48 °N, 106.15 °W | Updated 13 minutes ago

Partly Cloudy
Partly Cloudy
34 °F
Feels Like 26 °F
N
10
Wind Variable Wind from WSW
Gusts 17 mph

Today
High -- | Low -- °F
--% Chance of Precip.
Yesterday
High -- | Low -- °F
Precip. -- in
7:21 AM 6:15 PM
Waning Crescent, 1% visible
Pressure 30.47 in
Visibility 10.0 miles
Clouds Clear
Windchill 26 °F
Dew Point 25 °F
Humidity 70%
Rainfall 0.18 in
Snow Depth 177 in , 0 in , 3 in
UV 0 out of 12
Pollen 2.40 out of 12
Air Quality Not available.
Flu Activity Sporadic
METAR KCCU 230457Z AUTO 25009G15KT 240V330 10SM CLR 01/M04 A3047 RMK AO2

More Conditions Fewer Conditions

Pressure 30.47 in
Visibility 10.0 miles
Clouds Clear
Windchill 26 °F
Dew Point 25 °F
Humidity 70%
Rainfall 0.18 in
Snow Depth 177 in , 0 in , 3 in
UV 0 out of 12
Pollen 2.40 out of 12
Air Quality Not available.
Flu Activity Sporadic
METAR KCCU 230457Z AUTO 25009G15KT 240V330 10SM CLR 01/M04 A3047 RMK AO2

More Conditions Fewer Conditions

10-Day Weather Forecast

Almanac

Astronomy

Oct. 22, 2014 Rise Set
Actual Time 7:21 AM MDT 6:15 PM MDT
Civil Twilight 6:54 AM MDT 6:42 PM MDT
Nautical Twilight 6:23 AM MDT 7:14 PM MDT
Astronomical Twilight 5:52 AM MDT 7:45 PM MDT
Moon 6:06 AM MDT (10/22) 5:43 PM MDT (10/22)
Length of Visible Light 11h 48m
Length of Day
10h 53m
Tomorrow will be 2m 25s shorter.
Waning Crescent, 1% of the Moon is Illuminated
Oct 23
Waning Crescent
Oct 23
New
Oct 30
First Quarter
Nov 6
Full
Nov 14
Last Quarter

Yesterday's Extremes

State Highs State Lows

Community

WunderPhotos

Upload Photos

1,764,170 photos uploaded!

Nearby

Snow Depth

Station Depth Elevation
Fremont Pass 177 in 11400 ft
Vail Mountain 0 in 10300 ft
Loveland Basin 3 in 11400 ft
Jackwhacker Gulch 0 in 10960 ft
Beaver Creek Village 0 in 8500 ft

Earthquake Activity

City Distance Mag. Time & Date
No recent earthquake activity has been reported nearby.
Minimum magnitude displayed is 2.5.

Coastal Water Temperatures

Place Temperature
No Stations Reporting

Nearby Weather Stations